Time;durP1;ratioP1;P1;durP2;ratioP2;P2;SDS_P1;SDS_P2;PMS_P1;PMS_P2;Temp;Humidity;BMP_temperature;BMP_pressure;BME280_temperature;BME280_humidity;BME280_pressure;Samples;Min_cycle;Max_cycle;Signal;HPM_P1;HPM_P2
2021/06/08 00:02:17;;;;;;;13.63;11.93;;;15.90;99.90;;;;;;5096794;28;20043;-83
2021/06/08 00:04:42;;;;;;;14.65;12.00;;;15.90;99.90;;;;;;5096711;28;20044;-80
2021/06/08 00:07:08;;;;;;;14.80;11.98;;;15.90;99.90;;;;;;5094784;28;20036;-78
2021/06/08 00:09:34;;;;;;;15.88;11.07;;;15.80;99.90;;;;;;5095470;28;20073;-81
2021/06/08 00:11:59;;;;;;;13.13;11.82;;;15.80;99.90;;;;;;5097096;28;20116;-78
2021/06/08 00:14:26;;;;;;;15.13;11.15;;;15.70;99.90;;;;;;5095745;28;20028;-81
2021/06/08 00:16:51;;;;;;;13.30;11.93;;;15.70;99.90;;;;;;5095468;28;20027;-79
2021/06/08 00:19:17;;;;;;;19.23;12.02;;;15.60;99.90;;;;;;5095480;28;20031;-79
2021/06/08 00:21:43;;;;;;;13.48;11.45;;;15.50;99.90;;;;;;5096413;28;20037;-81
2021/06/08 00:24:08;;;;;;;11.98;10.85;;;15.50;99.90;;;;;;5095033;28;20034;-79
2021/06/08 00:26:35;;;;;;;18.70;11.80;;;15.50;99.90;;;;;;5096110;28;20040;-81
2021/06/08 00:29:01;;;;;;;13.35;11.30;;;15.50;99.90;;;;;;5094904;28;20030;-81
2021/06/08 00:31:27;;;;;;;13.13;11.82;;;15.40;99.90;;;;;;5096308;28;20028;-78
2021/06/08 00:33:53;;;;;;;13.40;11.80;;;15.40;99.90;;;;;;5095981;28;20024;-77
2021/06/08 00:36:20;;;;;;;13.95;12.68;;;15.30;99.90;;;;;;5095244;28;20025;-81
2021/06/08 00:38:45;;;;;;;12.45;11.30;;;15.30;99.90;;;;;;5096185;28;20024;-79
2021/06/08 00:41:12;;;;;;;14.57;11.65;;;15.30;99.90;;;;;;5094588;28;20022;-79
2021/06/08 00:43:38;;;;;;;12.25;10.98;;;15.20;99.90;;;;;;5095280;28;20104;-80
2021/06/08 00:46:04;;;;;;;12.55;11.38;;;15.20;99.90;;;;;;5095076;28;20040;-79
2021/06/08 00:48:29;;;;;;;13.52;11.20;;;15.20;99.90;;;;;;5095204;28;20026;-79
2021/06/08 00:50:56;;;;;;;12.73;10.88;;;15.10;99.90;;;;;;5095725;28;20107;-79
2021/06/08 00:53:23;;;;;;;15.05;11.70;;;15.00;99.90;;;;;;5094857;28;20028;-79
2021/06/08 00:55:50;;;;;;;14.30;12.60;;;15.00;99.90;;;;;;5096562;28;20020;-81
2021/06/08 00:58:15;;;;;;;13.70;12.32;;;15.00;99.90;;;;;;5096586;28;20081;-79
2021/06/08 01:00:41;;;;;;;12.57;11.35;;;15.00;99.90;;;;;;5094673;28;20019;-80
2021/06/08 01:03:07;;;;;;;13.82;11.88;;;14.90;99.90;;;;;;5095979;28;20024;-78
2021/06/08 01:05:32;;;;;;;15.05;12.68;;;14.90;99.90;;;;;;5095755;28;20052;-80
2021/06/08 01:07:58;;;;;;;14.43;12.55;;;14.80;99.90;;;;;;5094446;28;20471;-78
2021/06/08 01:10:24;;;;;;;14.75;12.90;;;14.80;99.90;;;;;;5096193;28;20458;-82
2021/06/08 01:12:50;;;;;;;14.52;13.02;;;14.80;99.90;;;;;;5094851;28;20070;-79
2021/06/08 01:15:15;;;;;;;16.00;12.20;;;14.80;99.90;;;;;;5094407;28;20031;-80
2021/06/08 01:17:41;;;;;;;13.55;12.38;;;14.70;99.90;;;;;;5095615;28;20065;-78
2021/06/08 01:20:08;;;;;;;14.27;12.55;;;14.70;99.90;;;;;;5095338;28;20028;-82
2021/06/08 01:22:35;;;;;;;15.35;12.93;;;14.60;99.90;;;;;;5095654;28;20118;-80
2021/06/08 01:25:03;;;;;;;19.10;12.82;;;14.60;99.90;;;;;;5094387;28;20034;-78
2021/06/08 01:27:29;;;;;;;15.13;12.23;;;14.60;99.90;;;;;;5095581;28;20383;-80
2021/06/08 01:29:59;;;;;;;13.07;11.73;;;14.60;99.90;;;;;;5096702;28;20050;-87
2021/06/08 01:32:27;;;;;;;15.88;12.43;;;14.50;99.90;;;;;;5098435;28;20036;-81
2021/06/08 01:34:55;;;;;;;13.77;12.25;;;14.50;99.90;;;;;;5097963;28;20366;-80
2021/06/08 01:37:22;;;;;;;13.93;12.65;;;14.40;99.90;;;;;;5096781;28;20024;-79
2021/06/08 01:39:48;;;;;;;13.98;12.27;;;14.40;99.90;;;;;;5096198;28;20020;-78
2021/06/08 01:42:16;;;;;;;12.48;11.43;;;14.40;99.90;;;;;;5095188;28;20024;-79
2021/06/08 01:44:43;;;;;;;13.45;12.15;;;14.30;99.90;;;;;;5096179;28;20020;-81
2021/06/08 01:47:10;;;;;;;17.25;11.73;;;14.30;99.90;;;;;;5095163;28;20386;-81
2021/06/08 01:49:36;;;;;;;13.27;11.75;;;14.30;99.90;;;;;;5094562;28;20027;-78
2021/06/08 01:52:30;;;;;;;13.70;12.18;;;14.30;99.90;;;;;;5096552;28;20028;-78
2021/06/08 01:55:18;;;;;;;13.93;11.65;;;14.20;99.90;;;;;;5095725;28;20027;-81
2021/06/08 01:57:49;;;;;;;13.07;11.40;;;14.20;99.90;;;;;;5095089;28;20056;-78
2021/06/08 02:00:36;;;;;;;13.57;11.88;;;14.20;99.90;;;;;;5097693;28;20020;-79
2021/06/08 02:03:08;;;;;;;13.52;11.15;;;14.10;99.90;;;;;;5096920;28;20048;-81
2021/06/08 02:05:52;;;;;;;14.20;11.40;;;14.10;99.90;;;;;;5097163;28;20050;-79
2021/06/08 02:08:39;;;;;;;11.82;10.65;;;14.10;99.90;;;;;;5095954;28;20043;-78
2021/06/08 02:11:04;;;;;;;11.52;10.25;;;14.00;99.90;;;;;;5096454;28;20028;-79
2021/06/08 02:14:08;;;;;;;14.07;10.82;;;14.00;99.90;;;;;;5095864;28;20028;-80
2021/06/08 02:16:49;;;;;;;11.73;10.52;;;13.90;99.90;;;;;;5095251;28;20028;-79
2021/06/08 02:19:18;;;;;;;12.55;11.27;;;13.80;99.90;;;;;;5093530;28;20046;-80
2021/06/08 02:21:53;;;;;;;17.35;11.25;;;13.70;99.90;;;;;;5094916;28;20028;-81
2021/06/08 02:24:24;;;;;;;12.20;10.93;;;13.80;99.90;;;;;;5097383;28;20020;-81
2021/06/08 02:26:56;;;;;;;12.07;10.98;;;13.70;99.90;;;;;;5097039;28;20044;-80
2021/06/08 02:29:23;;;;;;;11.52;10.35;;;13.70;99.90;;;;;;5096942;28;20024;-80
2021/06/08 02:31:51;;;;;;;14.65;10.93;;;13.70;99.90;;;;;;5097835;28;20039;-79
2021/06/08 02:34:18;;;;;;;15.70;11.07;;;13.70;99.90;;;;;;5097114;28;20028;-77
2021/06/08 02:36:47;;;;;;;15.80;11.50;;;13.60;99.90;;;;;;5096643;28;20027;-83
2021/06/08 02:39:16;;;;;;;15.73;10.70;;;13.60;99.90;;;;;;5099540;28;20028;-80
2021/06/08 02:41:42;;;;;;;12.02;10.82;;;13.50;99.90;;;;;;5098940;28;20038;-79
2021/06/08 02:44:11;;;;;;;12.98;10.63;;;13.50;99.90;;;;;;5098710;28;20021;-78
2021/06/08 02:46:38;;;;;;;15.85;10.93;;;13.40;99.90;;;;;;5098121;28;20036;-80
2021/06/08 02:49:05;;;;;;;11.13;10.15;;;13.40;99.90;;;;;;5101101;28;20027;-78
2021/06/08 02:51:31;;;;;;;11.85;10.55;;;13.40;99.90;;;;;;5098754;28;20039;-78
2021/06/08 02:53:58;;;;;;;11.40;10.20;;;13.40;99.90;;;;;;5098876;28;20020;-78
2021/06/08 02:56:23;;;;;;;14.95;10.43;;;13.40;99.90;;;;;;5096750;28;20028;-78
2021/06/08 02:58:51;;;;;;;13.02;10.32;;;13.30;99.90;;;;;;5098772;28;20028;-79
2021/06/08 03:01:21;;;;;;;11.30;10.20;;;13.30;99.90;;;;;;5097324;28;20031;-78
2021/06/08 03:03:50;;;;;;;11.13;10.13;;;13.30;99.90;;;;;;5080954;28;20062;-78
2021/06/08 03:06:21;;;;;;;16.20;10.23;;;13.30;99.90;;;;;;5098126;28;20050;-80
2021/06/08 03:09:14;;;;;;;14.38;10.07;;;13.30;99.90;;;;;;5096477;28;20032;-79
2021/06/08 03:11:50;;;;;;;13.23;9.98;;;13.30;99.90;;;;;;5095892;28;20028;-80
2021/06/08 03:14:17;;;;;;;12.13;9.48;;;13.30;99.90;;;;;;5094920;28;20016;-78
2021/06/08 03:16:48;;;;;;;13.15;9.73;;;13.20;99.90;;;;;;5095164;28;20028;-80
2021/06/08 03:19:18;;;;;;;13.30;9.32;;;13.20;99.90;;;;;;5093867;28;20027;-81
2021/06/08 03:21:48;;;;;;;10.85;9.80;;;13.20;99.90;;;;;;5095649;28;20024;-82
2021/06/08 03:24:16;;;;;;;11.52;9.75;;;13.10;99.90;;;;;;5094520;28;20027;-78
2021/06/08 03:26:44;;;;;;;11.05;10.00;;;13.10;99.90;;;;;;5095200;28;20039;-79
2021/06/08 03:29:13;;;;;;;13.82;10.73;;;13.00;99.90;;;;;;5093427;28;20046;-78
2021/06/08 03:31:42;;;;;;;13.85;10.57;;;13.00;99.90;;;;;;5094651;28;20467;-78
2021/06/08 03:34:14;;;;;;;12.40;10.57;;;13.00;99.90;;;;;;5092917;28;20032;-78
2021/06/08 03:36:43;;;;;;;10.98;9.93;;;13.00;99.90;;;;;;5092820;28;20028;-81
2021/06/08 03:39:09;;;;;;;12.77;10.35;;;13.00;99.90;;;;;;5094093;28;20066;-80
2021/06/08 03:41:36;;;;;;;11.18;10.00;;;13.00;99.90;;;;;;5092847;28;20020;-79
2021/06/08 03:44:03;;;;;;;10.88;9.95;;;13.00;99.90;;;;;;5093051;28;20367;-79
2021/06/08 03:46:29;;;;;;;12.25;10.65;;;13.00;99.90;;;;;;5093984;28;20028;-79
2021/06/08 03:48:58;;;;;;;11.93;10.43;;;13.10;99.90;;;;;;5092528;28;20021;-78
2021/06/08 03:51:28;;;;;;;11.82;10.60;;;13.10;99.90;;;;;;5094881;28;20016;-78
2021/06/08 03:53:53;;;;;;;12.85;9.68;;;13.10;99.90;;;;;;5093343;28;20067;-78
2021/06/08 03:56:20;;;;;;;16.25;10.18;;;13.10;99.90;;;;;;5092346;28;20051;-81
2021/06/08 03:58:46;;;;;;;14.30;11.23;;;13.20;99.90;;;;;;5092853;28;20056;-80
2021/06/08 04:01:12;;;;;;;14.80;11.10;;;13.20;99.90;;;;;;5092889;28;20028;-82
2021/06/08 04:03:38;;;;;;;10.88;9.80;;;13.20;99.90;;;;;;5094309;28;20039;-79
2021/06/08 04:06:04;;;;;;;16.55;14.85;;;13.30;99.90;;;;;;5094783;28;20131;-87
2021/06/08 04:08:36;;;;;;;10.98;9.75;;;13.90;99.90;;;;;;5096943;28;20024;-78
2021/06/08 04:11:01;;;;;;;9.27;6.78;;;15.70;99.90;;;;;;5094434;28;20024;-79
2021/06/08 04:13:27;;;;;;;13.60;6.40;;;16.10;99.90;;;;;;5095160;28;20027;-81
2021/06/08 04:15:53;;;;;;;9.23;5.50;;;16.40;99.90;;;;;;5096357;28;20116;-86
2021/06/08 04:18:20;;;;;;;7.88;5.53;;;16.80;99.90;;;;;;5095147;28;20031;-83
2021/06/08 04:20:48;;;;;;;6.95;5.78;;;17.00;99.90;;;;;;5098560;28;20104;-80
2021/06/08 04:23:14;;;;;;;9.00;5.47;;;16.90;99.90;;;;;;5098067;28;20020;-82
2021/06/08 04:25:39;;;;;;;9.57;6.50;;;17.00;99.90;;;;;;5095010;28;20027;-88
2021/06/08 04:28:05;;;;;;;7.35;5.72;;;17.30;99.90;;;;;;5096766;28;20024;-80
2021/06/08 04:30:31;;;;;;;10.35;6.45;;;17.40;99.90;;;;;;5096279;28;20085;-84
2021/06/08 04:32:57;;;;;;;9.70;7.60;;;18.00;99.90;;;;;;5097119;28;20028;-80
2021/06/08 04:35:22;;;;;;;13.80;10.05;;;18.10;99.90;;;;;;5096884;28;20509;-84
2021/06/08 04:37:49;;;;;;;14.15;10.38;;;17.80;99.90;;;;;;5095871;28;20378;-82
2021/06/08 04:40:16;;;;;;;8.68;6.28;;;18.00;99.90;;;;;;5095665;28;20421;-84
2021/06/08 04:42:44;;;;;;;7.93;6.03;;;18.00;99.90;;;;;;5096695;28;20047;-83
2021/06/08 04:45:10;;;;;;;11.73;7.40;;;17.60;99.90;;;;;;5095654;28;20032;-84
2021/06/08 04:47:36;;;;;;;12.93;7.05;;;17.50;99.90;;;;;;5097240;28;20032;-86
2021/06/08 04:50:03;;;;;;;11.85;7.85;;;17.70;99.90;;;;;;5096707;28;20221;-84
2021/06/08 04:52:29;;;;;;;8.05;6.93;;;17.60;99.90;;;;;;5096017;28;20024;-85
2021/06/08 04:54:54;;;;;;;12.02;8.90;;;17.80;99.90;;;;;;5096461;28;20024;-82
2021/06/08 04:57:21;;;;;;;10.25;9.02;;;17.60;99.90;;;;;;5095358;28;20012;-82
2021/06/08 05:00:05;;;;;;;12.40;9.13;;;17.40;99.90;;;;;;5096343;28;20026;-89
2021/06/08 05:02:31;;;;;;;8.07;7.00;;;17.70;99.90;;;;;;5094719;28;20020;-85
2021/06/08 05:05:00;;;;;;;8.45;6.10;;;17.70;99.90;;;;;;5096019;28;20574;-80
2021/06/08 05:07:27;;;;;;;8.75;5.57;;;17.70;99.90;;;;;;5095785;28;20486;-79
2021/06/08 05:09:55;;;;;;;8.18;5.95;;;18.40;99.90;;;;;;5094787;28;20463;-80
2021/06/08 05:12:22;;;;;;;7.28;4.90;;;18.30;99.90;;;;;;5095670;28;20026;-82
2021/06/08 05:14:53;;;;;;;6.35;4.90;;;18.30;99.90;;;;;;5094167;28;20035;-80
2021/06/08 05:17:21;;;;;;;7.50;4.95;;;18.50;99.90;;;;;;5094881;28;20103;-79
2021/06/08 05:19:48;;;;;;;9.40;5.07;;;18.80;99.90;;;;;;5094853;28;20031;-80
2021/06/08 05:22:19;;;;;;;7.07;5.22;;;19.00;99.90;;;;;;5093505;28;20141;-77
2021/06/08 05:24:52;;;;;;;10.32;6.30;;;18.90;99.90;;;;;;5095039;28;20020;-81
2021/06/08 05:27:22;;;;;;;11.25;8.55;;;18.60;99.90;;;;;;5094998;28;20055;-81
2021/06/08 05:29:58;;;;;;;8.65;6.15;;;18.50;99.90;;;;;;5094706;28;20024;-82
2021/06/08 05:32:24;;;;;;;12.10;6.28;;;19.00;99.90;;;;;;5094811;28;20035;-77
2021/06/08 05:34:50;;;;;;;11.85;6.97;;;19.20;99.90;;;;;;5093157;28;20032;-81
2021/06/08 05:37:17;;;;;;;9.98;6.90;;;19.30;99.90;;;;;;5093203;28;20023;-81
2021/06/08 05:39:44;;;;;;;8.32;5.53;;;19.60;99.90;;;;;;5092990;28;20081;-81
2021/06/08 05:42:18;;;;;;;9.70;6.28;;;19.70;99.90;;;;;;5093017;28;20482;-80
2021/06/08 05:44:44;;;;;;;10.55;7.28;;;20.10;99.90;;;;;;5094388;28;20016;-79
2021/06/08 05:47:10;;;;;;;5.75;4.72;;;20.30;99.90;;;;;;5093283;28;20039;-78
2021/06/08 05:49:38;;;;;;;5.95;5.13;;;20.00;99.90;;;;;;5093019;28;20047;-81
2021/06/08 05:52:05;;;;;;;8.73;5.28;;;19.80;99.90;;;;;;5093103;28;20119;-78
2021/06/08 05:54:31;;;;;;;6.28;4.97;;;19.60;99.90;;;;;;5092928;28;20022;-78
2021/06/08 05:56:58;;;;;;;5.47;4.63;;;19.60;99.90;;;;;;5092523;28;20028;-78
2021/06/08 05:59:24;;;;;;;5.63;4.90;;;19.50;99.90;;;;;;5093943;28;20433;-77
2021/06/08 06:01:50;;;;;;;7.10;4.80;;;19.50;99.90;;;;;;5093943;28;20030;-77
2021/06/08 06:04:17;;;;;;;5.20;4.70;;;19.60;99.90;;;;;;5093814;28;20091;-78
2021/06/08 06:06:45;;;;;;;5.85;4.93;;;19.60;99.90;;;;;;5093688;28;20050;-79
2021/06/08 06:09:21;;;;;;;6.60;5.00;;;19.80;99.90;;;;;;5092634;28;20032;-78
2021/06/08 06:11:48;;;;;;;9.07;5.03;;;20.00;99.90;;;;;;5092504;28;20020;-79
2021/06/08 06:14:21;;;;;;;6.55;4.70;;;20.20;99.90;;;;;;5092409;28;20020;-78
2021/06/08 06:16:49;;;;;;;9.80;4.78;;;20.40;99.90;;;;;;5092137;28;20456;-78
2021/06/08 06:19:16;;;;;;;8.13;4.70;;;20.60;99.90;;;;;;5092246;28;20024;-79
2021/06/08 06:21:42;;;;;;;6.15;4.53;;;20.70;99.90;;;;;;5093460;28;20057;-79
2021/06/08 06:24:11;;;;;;;5.22;3.75;;;20.90;99.90;;;;;;5092221;28;20160;-79
2021/06/08 06:26:39;;;;;;;6.53;4.07;;;21.10;98.90;;;;;;5092251;28;20070;-78
2021/06/08 06:29:05;;;;;;;6.43;3.88;;;21.30;97.80;;;;;;5092925;28;20031;-78
2021/06/08 06:31:31;;;;;;;5.50;3.63;;;21.50;96.70;;;;;;5093598;28;20119;-77
2021/06/08 06:33:58;;;;;;;8.20;4.47;;;21.50;96.20;;;;;;5095101;28;20023;-77
2021/06/08 06:36:27;;;;;;;6.32;3.85;;;21.50;96.40;;;;;;5091335;28;20038;-78
2021/06/08 06:38:58;;;;;;;6.70;5.10;;;21.60;95.80;;;;;;5091898;28;20035;-78
2021/06/08 06:41:24;;;;;;;6.05;4.22;;;21.70;96.60;;;;;;5093169;28;20070;-79
2021/06/08 06:43:53;;;;;;;5.18;3.95;;;21.90;95.30;;;;;;5092171;28;20027;-79
2021/06/08 06:46:19;;;;;;;8.90;4.43;;;22.10;95.70;;;;;;5091529;28;20489;-79
2021/06/08 06:48:46;;;;;;;7.80;3.75;;;22.20;95.50;;;;;;5091087;28;20032;-78
2021/06/08 06:51:13;;;;;;;6.70;4.10;;;22.30;95.80;;;;;;5091654;28;20017;-80
2021/06/08 06:53:40;;;;;;;6.70;3.90;;;22.50;95.30;;;;;;5091583;28;20435;-79
2021/06/08 06:56:06;;;;;;;7.07;3.40;;;22.60;94.80;;;;;;5091536;28;20028;-79
2021/06/08 06:58:33;;;;;;;7.45;3.67;;;22.70;95.40;;;;;;5091442;28;20438;-80
2021/06/08 07:00:59;;;;;;;5.20;3.55;;;22.80;93.90;;;;;;5091193;28;20115;-79
2021/06/08 07:03:29;;;;;;;6.20;3.67;;;23.00;92.10;;;;;;5092645;28;20104;-78
2021/06/08 07:05:56;;;;;;;4.53;3.47;;;23.20;91.70;;;;;;5090904;28;20052;-79
2021/06/08 07:08:43;;;;;;;5.88;3.80;;;23.50;91.40;;;;;;5074672;28;20047;-81
2021/06/08 07:11:09;;;;;;;7.50;3.38;;;23.60;90.60;;;;;;5092452;28;20030;-78
2021/06/08 07:13:36;;;;;;;7.72;3.22;;;23.60;87.40;;;;;;5091235;28;20077;-79
2021/06/08 07:16:01;;;;;;;3.88;2.97;;;23.80;90.20;;;;;;5092558;28;20031;-80
2021/06/08 07:18:27;;;;;;;4.72;2.90;;;23.80;83.60;;;;;;5091258;28;20034;-79
2021/06/08 07:20:54;;;;;;;6.10;3.53;;;23.80;82.80;;;;;;5091086;28;20030;-80
2021/06/08 07:23:20;;;;;;;11.73;6.57;;;23.80;82.20;;;;;;5091022;28;20035;-79
2021/06/08 07:25:48;;;;;;;9.00;5.03;;;23.90;84.10;;;;;;5091058;28;20055;-81
2021/06/08 07:28:18;;;;;;;9.20;3.78;;;23.90;84.20;;;;;;5090856;28;20506;-80
2021/06/08 07:30:44;;;;;;;3.65;2.80;;;24.10;82.30;;;;;;5091619;28;20020;-80
2021/06/08 07:33:31;;;;;;;7.65;2.92;;;24.20;79.70;;;;;;5092120;28;20055;-80
2021/06/08 07:36:09;;;;;;;8.43;3.30;;;24.30;80.00;;;;;;5091129;28;20048;-80
2021/06/08 07:38:48;;;;;;;4.32;3.13;;;24.40;78.50;;;;;;5090998;28;20077;-79
2021/06/08 07:41:30;;;;;;;5.60;2.88;;;24.40;75.50;;;;;;5090901;28;20049;-78
2021/06/08 07:44:01;;;;;;;12.07;3.85;;;24.60;73.20;;;;;;5090988;28;20036;-81
2021/06/08 07:46:28;;;;;;;4.95;2.72;;;24.70;74.40;;;;;;5090906;28;20032;-79
2021/06/08 07:48:56;;;;;;;6.63;2.70;;;24.70;70.20;;;;;;5090834;28;20031;-80
2021/06/08 07:51:22;;;;;;;4.40;2.88;;;24.80;72.00;;;;;;5090856;28;20020;-80
2021/06/08 07:53:51;;;;;;;5.65;3.03;;;24.90;69.60;;;;;;5090798;28;20107;-77
2021/06/08 07:56:17;;;;;;;6.85;3.40;;;25.00;69.40;;;;;;5090654;28;20479;-79
2021/06/08 07:58:43;;;;;;;5.68;3.00;;;25.00;68.50;;;;;;5090971;28;20390;-83
2021/06/08 08:01:09;;;;;;;3.67;3.10;;;25.10;69.60;;;;;;5094427;28;20035;-80
2021/06/08 08:03:37;;;;;;;5.47;3.20;;;25.10;67.40;;;;;;5094625;28;20048;-79
2021/06/08 08:06:12;;;;;;;7.22;3.03;;;25.10;66.20;;;;;;5094546;28;20494;-79
2021/06/08 08:08:38;;;;;;;4.68;2.83;;;25.30;64.40;;;;;;5096066;28;20550;-80
2021/06/08 08:11:07;;;;;;;4.72;2.83;;;25.30;62.10;;;;;;5094527;28;20036;-80
2021/06/08 08:13:34;;;;;;;4.10;2.47;;;25.40;62.70;;;;;;5094842;28;20370;-79
2021/06/08 08:16:04;;;;;;;4.10;2.88;;;25.40;58.40;;;;;;5095862;28;20031;-80
2021/06/08 08:18:33;;;;;;;4.10;2.40;;;25.50;59.00;;;;;;5094538;28;20028;-80
2021/06/08 08:20:59;;;;;;;5.00;2.65;;;25.50;57.30;;;;;;5094181;28;20020;-79
2021/06/08 08:23:27;;;;;;;4.00;2.90;;;25.50;59.40;;;;;;5095757;28;20031;-81
2021/06/08 08:25:57;;;;;;;5.82;2.33;;;25.50;57.50;;;;;;5093906;28;20024;-77
2021/06/08 08:28:25;;;;;;;5.47;2.60;;;25.60;58.40;;;;;;5094162;28;20467;-79
2021/06/08 08:30:52;;;;;;;5.88;2.70;;;25.70;55.70;;;;;;5094055;28;20051;-80
2021/06/08 08:33:18;;;;;;;2.42;2.17;;;25.80;57.30;;;;;;5093994;28;20028;-80
2021/06/08 08:35:43;;;;;;;3.80;2.50;;;25.70;55.50;;;;;;5095321;28;20031;-79
2021/06/08 08:38:09;;;;;;;2.65;2.20;;;25.80;55.90;;;;;;5093970;28;20032;-78
2021/06/08 08:40:36;;;;;;;2.83;2.28;;;25.80;58.40;;;;;;5093715;28;20030;-78
2021/06/08 08:43:03;;;;;;;3.58;2.30;;;26.00;54.40;;;;;;5093817;28;20028;-79
2021/06/08 08:45:30;;;;;;;2.97;2.30;;;26.00;54.10;;;;;;5093796;28;20028;-78
2021/06/08 08:47:57;;;;;;;4.18;2.17;;;26.10;52.70;;;;;;5093792;28;20463;-79
2021/06/08 08:50:23;;;;;;;5.40;2.63;;;26.10;54.50;;;;;;5094934;28;20020;-80
2021/06/08 08:52:58;;;;;;;2.63;2.13;;;26.20;55.90;;;;;;5094769;28;20063;-80
2021/06/08 08:55:28;;;;;;;5.72;3.03;;;26.20;52.80;;;;;;5094750;28;20024;-83
2021/06/08 08:57:57;;;;;;;3.50;2.45;;;26.40;52.20;;;;;;5094925;28;20016;-80
2021/06/08 09:00:25;;;;;;;4.03;2.72;;;26.60;52.90;;;;;;5093423;28;20063;-79
2021/06/08 09:02:55;;;;;;;4.85;2.10;;;26.70;50.40;;;;;;5093456;28;20078;-82
2021/06/08 09:05:21;;;;;;;4.00;2.35;;;26.70;50.40;;;;;;5094731;28;20501;-79
2021/06/08 09:07:49;;;;;;;5.38;2.20;;;26.70;50.40;;;;;;5093312;28;20535;-79
2021/06/08 09:10:16;;;;;;;4.43;2.22;;;26.70;50.60;;;;;;5093398;28;20077;-78
2021/06/08 09:12:41;;;;;;;3.95;2.25;;;26.50;50.80;;;;;;5092479;28;20447;-77
2021/06/08 09:15:08;;;;;;;5.32;2.05;;;26.70;53.20;;;;;;5094639;28;20076;-80
2021/06/08 09:17:38;;;;;;;3.30;2.28;;;26.80;49.50;;;;;;5094712;28;20039;-83
2021/06/08 09:20:05;;;;;;;2.42;2.20;;;26.60;49.90;;;;;;5093108;28;20020;-80
2021/06/08 09:22:57;;;;;;;5.03;2.30;;;26.30;49.00;;;;;;5094423;28;20521;-80
2021/06/08 09:25:38;;;;;;;4.60;2.38;;;26.50;50.40;;;;;;5091003;28;20378;-82
2021/06/08 09:28:16;;;;;;;5.57;2.22;;;26.50;47.30;;;;;;5092871;28;20032;-79
2021/06/08 09:30:42;;;;;;;7.53;2.53;;;26.50;48.90;;;;;;5094236;28;20071;-77
2021/06/08 09:33:23;;;;;;;4.63;1.92;;;26.60;47.60;;;;;;5092829;28;20047;-80
2021/06/08 09:35:51;;;;;;;2.92;2.00;;;26.80;46.40;;;;;;5092843;28;20062;-79
2021/06/08 09:38:16;;;;;;;3.55;2.42;;;26.80;48.30;;;;;;5093169;28;20020;-75
2021/06/08 09:40:43;;;;;;;3.28;2.03;;;26.90;49.50;;;;;;5093964;28;20433;-81
2021/06/08 09:43:11;;;;;;;4.95;2.13;;;26.90;50.50;;;;;;5093941;28;20016;-75
2021/06/08 09:45:49;;;;;;;4.20;2.08;;;26.90;48.80;;;;;;5092777;28;20027;-78
2021/06/08 09:48:16;;;;;;;3.97;2.17;;;27.20;50.00;;;;;;5092618;28;20043;-78
2021/06/08 09:50:43;;;;;;;2.28;2.08;;;27.30;45.80;;;;;;5091816;28;20366;-81
2021/06/08 09:53:28;;;;;;;5.68;2.70;;;27.30;47.90;;;;;;5092746;28;20119;-77
2021/06/08 09:56:07;;;;;;;3.88;2.25;;;27.40;46.70;;;;;;5093778;28;20466;-78
2021/06/08 09:58:38;;;;;;;3.38;2.33;;;27.50;47.80;;;;;;5092458;28;20512;-77
2021/06/08 10:01:04;;;;;;;6.25;2.67;;;27.30;48.00;;;;;;5101311;28;20016;-76
2021/06/08 10:03:39;;;;;;;5.22;2.30;;;27.40;47.10;;;;;;5101351;28;20049;-76
2021/06/08 10:06:38;;;;;;;4.80;2.50;;;27.50;49.20;;;;;;5098809;28;20036;-77
2021/06/08 10:09:09;;;;;;;4.47;2.33;;;27.70;47.30;;;;;;5089940;28;20028;-76
2021/06/08 10:11:36;;;;;;;5.45;2.53;;;27.50;47.80;;;;;;5093767;28;20020;-77
2021/06/08 10:14:18;;;;;;;2.97;2.33;;;27.50;48.50;;;;;;5091890;28;20111;-78
2021/06/08 10:16:45;;;;;;;4.80;2.72;;;27.50;48.50;;;;;;5092347;28;20157;-76
2021/06/08 10:19:23;;;;;;;3.22;1.90;;;27.20;47.40;;;;;;5092468;28;20032;-76
2021/06/08 10:21:49;;;;;;;4.20;2.22;;;26.90;47.30;;;;;;5092126;28;20055;-79
2021/06/08 10:24:22;;;;;;;4.97;2.60;;;26.50;49.70;;;;;;5092180;28;20039;-80
2021/06/08 10:26:51;;;;;;;4.10;2.45;;;26.30;48.50;;;;;;5090948;28;20070;-79
2021/06/08 10:29:20;;;;;;;5.93;2.90;;;26.30;47.80;;;;;;5092573;28;20084;-78
2021/06/08 10:31:46;;;;;;;6.82;2.25;;;26.60;48.10;;;;;;5093478;28;20473;-78
2021/06/08 10:34:12;;;;;;;4.53;2.47;;;26.70;47.70;;;;;;5092571;28;20475;-78
2021/06/08 10:36:43;;;;;;;4.43;2.60;;;26.70;49.10;;;;;;5091932;28;20081;-79
2021/06/08 10:39:11;;;;;;;3.40;2.50;;;26.70;47.90;;;;;;5092803;28;20012;-78
2021/06/08 10:41:40;;;;;;;5.97;2.67;;;26.90;46.80;;;;;;5092993;28;20348;-78
2021/06/08 10:44:06;;;;;;;4.68;2.47;;;27.00;46.80;;;;;;5092759;28;20095;-79
2021/06/08 10:46:44;;;;;;;4.68;2.50;;;27.00;47.30;;;;;;5090899;28;20493;-78
2021/06/08 10:49:09;;;;;;;3.20;2.55;;;27.30;47.50;;;;;;5091578;28;20021;-78
2021/06/08 10:51:37;;;;;;;4.25;2.42;;;27.40;47.40;;;;;;5092638;28;20039;-78
2021/06/08 10:54:06;;;;;;;3.05;2.75;;;27.50;46.20;;;;;;5092713;28;20093;-78
2021/06/08 10:56:36;;;;;;;2.72;2.53;;;27.80;48.20;;;;;;5092648;28;20479;-78
2021/06/08 10:59:08;;;;;;;4.15;2.42;;;27.90;48.50;;;;;;5091429;28;20498;-79
2021/06/08 11:01:40;;;;;;;3.97;2.40;;;27.80;46.20;;;;;;5092366;28;20131;-79
2021/06/08 11:04:11;;;;;;;5.32;2.65;;;27.90;46.00;;;;;;5092675;28;20479;-78
2021/06/08 11:06:37;;;;;;;4.45;2.53;;;27.80;45.00;;;;;;5091042;28;20051;-78
2021/06/08 11:09:08;;;;;;;4.72;2.60;;;27.60;46.50;;;;;;5091114;28;20035;-78
2021/06/08 11:11:55;;;;;;;3.20;2.25;;;27.60;46.30;;;;;;5091149;28;20016;-79
2021/06/08 11:14:33;;;;;;;2.83;2.30;;;27.70;47.50;;;;;;5092339;28;20459;-78
2021/06/08 11:17:27;;;;;;;3.60;2.50;;;27.80;46.40;;;;;;5091733;28;20019;-78
2021/06/08 11:20:12;;;;;;;4.00;2.42;;;27.90;47.40;;;;;;5092309;28;20020;-77
2021/06/08 11:22:41;;;;;;;;;;;27.90;48.10;;;;;;5093299;28;20085;-78
2021/06/08 11:25:31;;;;;;;5.70;2.50;;;28.00;45.60;;;;;;5091183;28;19908;-78
2021/06/08 11:27:57;;;;;;;5.38;2.38;;;27.80;44.80;;;;;;5091107;28;20127;-78
2021/06/08 11:30:36;;;;;;;5.63;2.70;;;27.80;45.50;;;;;;5091108;28;20476;-79
2021/06/08 11:33:06;;;;;;;3.92;2.45;;;28.00;46.40;;;;;;5091226;28;20186;-78
2021/06/08 11:35:36;;;;;;;4.53;2.70;;;28.00;44.10;;;;;;5093630;28;20074;-78
2021/06/08 11:38:06;;;;;;;3.38;2.40;;;28.20;46.50;;;;;;5095038;28;20020;-78
2021/06/08 11:40:42;;;;;;;5.10;2.38;;;28.10;45.40;;;;;;5095367;28;20107;-78
2021/06/08 11:43:14;;;;;;;4.82;2.40;;;28.00;46.20;;;;;;5093882;28;20055;-80
2021/06/08 11:45:45;;;;;;;6.35;2.38;;;27.80;45.70;;;;;;5091625;28;20453;-77
2021/06/08 11:48:47;;;;;;;5.05;2.30;;;28.00;46.20;;;;;;5093395;28;20032;-79
2021/06/08 11:51:20;;;;;;;4.78;2.38;;;28.20;46.90;;;;;;5092344;28;20428;-78
2021/06/08 11:53:59;;;;;;;4.60;2.28;;;28.10;48.70;;;;;;5094967;28;20103;-79
2021/06/08 11:56:43;;;;;;;5.15;2.30;;;28.10;45.50;;;;;;5094721;28;20088;-78
2021/06/08 11:59:09;;;;;;;3.33;2.47;;;28.20;46.00;;;;;;5095000;28;20036;-78
2021/06/08 12:01:37;;;;;;;3.25;2.60;;;28.20;44.90;;;;;;5094421;28;20078;-79
2021/06/08 12:04:03;;;;;;;4.85;2.35;;;28.00;46.30;;;;;;5096144;28;20028;-79
2021/06/08 12:07:08;;;;;;;4.63;2.38;;;28.00;46.00;;;;;;5094217;28;20052;-78
2021/06/08 12:09:45;;;;;;;5.07;2.78;;;28.10;45.10;;;;;;5095192;28;20036;-79
2021/06/08 12:12:16;;;;;;;2.83;2.20;;;28.10;47.50;;;;;;5095818;28;20021;-78
2021/06/08 12:14:54;;;;;;;4.30;2.35;;;28.40;47.60;;;;;;5092530;28;20374;-79
2021/06/08 12:17:21;;;;;;;3.47;2.10;;;28.60;44.60;;;;;;5094470;28;20030;-79
2021/06/08 12:19:47;;;;;;;4.25;2.20;;;28.70;44.70;;;;;;5094221;28;20474;-79
2021/06/08 12:22:23;;;;;;;8.00;2.40;;;28.40;43.80;;;;;;5094394;28;20025;-80
2021/06/08 12:25:05;;;;;;;3.30;2.55;;;28.30;42.10;;;;;;5093978;28;20012;-80
2021/06/08 12:27:38;;;;;;;4.97;2.35;;;28.20;44.60;;;;;;5095436;28;20383;-80
2021/06/08 12:30:09;;;;;;;2.80;2.40;;;28.60;46.30;;;;;;5094161;28;20025;-77
2021/06/08 12:32:38;;;;;;;4.18;2.40;;;28.50;44.60;;;;;;5094412;28;20020;-78
2021/06/08 12:35:05;;;;;;;4.05;2.38;;;28.10;44.70;;;;;;5094203;28;20367;-78
2021/06/08 12:37:31;;;;;;;4.05;2.47;;;28.00;42.80;;;;;;5093677;28;20126;-78
2021/06/08 12:39:58;;;;;;;5.32;2.60;;;27.80;44.70;;;;;;5092764;28;20115;-77
2021/06/08 12:42:25;;;;;;;5.40;2.80;;;27.70;44.00;;;;;;5092085;28;20016;-78
2021/06/08 12:44:52;;;;;;;16.90;3.75;;;27.70;43.80;;;;;;5093013;28;20028;-76
2021/06/08 12:47:22;;;;;;;4.55;2.50;;;27.80;47.00;;;;;;5093224;28;20035;-80
2021/06/08 12:49:48;;;;;;;4.40;2.55;;;27.90;46.20;;;;;;5087552;28;20099;-79
2021/06/08 12:52:21;;;;;;;3.67;2.38;;;27.70;44.40;;;;;;5088967;28;20111;-79
2021/06/08 12:54:49;;;;;;;3.70;2.42;;;27.60;44.50;;;;;;5095015;28;20056;-78